createdAt,value
2023-02-09T00:00:53.809Z,-1.5
2023-02-09T00:01:53.943Z,-1.45
2023-02-09T00:02:53.837Z,-1.54
2023-02-09T00:03:54.022Z,-1.45
2023-02-09T00:04:53.828Z,-1.46
2023-02-09T00:05:53.804Z,-1.4
2023-02-09T00:06:53.828Z,-1.42
2023-02-09T00:07:53.868Z,-1.32
2023-02-09T00:08:53.837Z,-1.39
2023-02-09T00:09:53.856Z,-1.29
2023-02-09T00:10:53.831Z,-1.36
2023-02-09T00:11:53.919Z,-1.33
2023-02-09T00:12:53.849Z,-1.33
2023-02-09T00:13:53.848Z,-1.36
2023-02-09T00:14:53.826Z,-1.38
2023-02-09T00:15:53.820Z,-1.43
2023-02-09T00:16:54.241Z,-1.24
2023-02-09T00:17:53.856Z,-1.35
2023-02-09T00:18:53.848Z,-1.32
2023-02-09T00:19:53.871Z,-1.38
2023-02-09T00:20:53.839Z,-1.39
2023-02-09T00:21:53.861Z,-1.39
2023-02-09T00:22:53.851Z,-1.45
2023-02-09T00:23:53.843Z,-1.54
2023-02-09T00:24:55.079Z,-1.61
2023-02-09T00:25:53.863Z,-1.53
2023-02-09T00:26:53.837Z,-1.56
2023-02-09T00:27:54.002Z,-1.63
2023-02-09T00:28:53.897Z,-1.63
2023-02-09T00:29:53.857Z,-1.54
2023-02-09T00:30:54.040Z,-1.63
2023-02-09T00:31:54.141Z,-1.63
2023-02-09T00:32:53.870Z,-1.66
2023-02-09T00:33:53.942Z,-1.66
2023-02-09T00:34:53.913Z,-1.87
2023-02-09T00:35:53.879Z,-1.81
2023-02-09T00:36:53.875Z,-1.79
2023-02-09T00:37:53.869Z,-1.78
2023-02-09T00:38:56.639Z,-1.87
2023-02-09T00:39:53.902Z,-2.02
2023-02-09T00:40:53.881Z,-1.93
2023-02-09T00:41:53.919Z,-1.89
2023-02-09T00:42:53.860Z,-2.02
2023-02-09T00:43:56.644Z,-1.94
2023-02-09T00:44:53.867Z,-1.97
2023-02-09T00:45:54.002Z,-1.89
2023-02-09T00:46:53.954Z,-1.97
2023-02-09T00:47:53.935Z,-1.96
2023-02-09T00:48:53.899Z,-1.93
2023-02-09T00:49:56.979Z,-2
2023-02-09T00:50:53.932Z,-1.93
2023-02-09T00:51:53.933Z,-1.97
2023-02-09T00:52:53.877Z,-2.04
2023-02-09T00:53:53.894Z,-2.05
2023-02-09T00:54:56.649Z,-2
2023-02-09T00:55:53.900Z,-2.13
2023-02-09T00:56:53.900Z,-2.23
2023-02-09T00:57:53.926Z,-2.15
2023-02-09T00:58:53.902Z,-2.22
2023-02-09T00:59:53.898Z,-2.15
2023-02-09T01:00:57.232Z,-2.1
2023-02-09T01:01:53.942Z,-2.14
2023-02-09T01:02:53.900Z,-2.15
2023-02-09T01:03:53.917Z,-2.14
2023-02-09T01:04:54.097Z,-2.29
2023-02-09T01:05:57.012Z,-2.18
2023-02-09T01:06:53.924Z,-2.32
2023-02-09T01:07:53.940Z,-2.34
2023-02-09T01:08:53.901Z,-2.28
2023-02-09T01:09:53.932Z,-2.37
2023-02-09T01:10:53.923Z,-2.4
2023-02-09T01:11:53.942Z,-2.39
2023-02-09T01:12:53.956Z,-2.47
2023-02-09T01:13:54.051Z,-2.4
2023-02-09T01:14:53.926Z,-2.44
2023-02-09T01:15:53.922Z,-2.54
2023-02-09T01:16:56.895Z,-2.48
2023-02-09T01:17:53.914Z,-2.52
2023-02-09T01:18:53.938Z,-2.47
2023-02-09T01:19:53.984Z,-2.45
2023-02-09T01:20:53.944Z,-2.58
2023-02-09T01:21:53.987Z,-2.45
2023-02-09T01:22:53.958Z,-2.48
2023-02-09T01:23:53.967Z,-2.44
2023-02-09T01:24:53.935Z,-2.36
2023-02-09T01:25:53.942Z,-2.4
2023-02-09T01:26:53.954Z,-2.4
2023-02-09T01:27:57.963Z,-2.42
2023-02-09T01:28:53.932Z,-2.37
2023-02-09T01:29:53.962Z,-2.5
2023-02-09T01:30:54.560Z,-2.4
2023-02-09T01:31:54.562Z,-2.44
2023-02-09T01:32:53.970Z,-2.45
2023-02-09T01:33:53.940Z,-2.4
2023-02-09T01:34:53.962Z,-2.42
2023-02-09T01:35:54.001Z,-2.45
2023-02-09T01:36:53.956Z,-2.54
2023-02-09T01:37:54.042Z,-2.52
2023-02-09T01:38:57.053Z,-2.5
2023-02-09T01:39:53.973Z,-2.52
2023-02-09T01:40:53.960Z,-2.44
2023-02-09T01:41:54.015Z,-2.51
2023-02-09T01:42:53.988Z,-2.57
2023-02-09T01:43:53.992Z,-2.5
2023-02-09T01:44:53.953Z,-2.4
2023-02-09T01:45:54.184Z,-2.44
2023-02-09T01:46:53.978Z,-2.55
2023-02-09T01:47:54.017Z,-2.48
2023-02-09T01:48:53.982Z,-2.44
2023-02-09T01:49:57.100Z,-2.44
2023-02-09T01:50:53.974Z,-2.58
2023-02-09T01:51:54.205Z,-2.52
2023-02-09T01:52:53.987Z,-2.73
2023-02-09T01:53:54.013Z,-2.7
2023-02-09T01:54:53.998Z,-2.57
2023-02-09T01:55:54.006Z,-2.63
2023-02-09T01:56:53.999Z,-2.58
2023-02-09T01:57:54.500Z,-2.65
2023-02-09T01:58:53.997Z,-2.62
2023-02-09T01:59:54.001Z,-2.68
2023-02-09T02:00:59.081Z,-2.76
2023-02-09T02:01:54.139Z,-2.62
2023-02-09T02:02:54.215Z,-2.7
2023-02-09T02:03:53.999Z,-2.73
2023-02-09T02:04:54.008Z,-2.65
2023-02-09T02:05:54.004Z,-2.7
2023-02-09T02:06:53.995Z,-2.75
2023-02-09T02:07:53.985Z,-2.66
2023-02-09T02:08:54.004Z,-2.68
2023-02-09T02:09:54.023Z,-2.66
2023-02-09T02:10:54.017Z,-2.66
2023-02-09T02:11:57.066Z,-2.76
2023-02-09T02:12:54.006Z,-2.66
2023-02-09T02:13:54.007Z,-2.62
2023-02-09T02:14:53.993Z,-2.8
2023-02-09T02:15:54.173Z,-2.68
2023-02-09T02:16:54.059Z,-2.73
2023-02-09T02:17:54.021Z,-2.69
2023-02-09T02:18:54.044Z,-2.68
2023-02-09T02:19:54.043Z,-2.86
2023-02-09T02:20:54.042Z,-2.93
2023-02-09T02:21:54.018Z,-3.05
2023-02-09T02:22:57.116Z,-2.94
2023-02-09T02:23:54.030Z,-3.04
2023-02-09T02:24:54.016Z,-3.07
2023-02-09T02:25:54.066Z,-3.01
2023-02-09T02:26:54.039Z,-3.17
2023-02-09T02:27:54.119Z,-3.05
2023-02-09T02:28:54.045Z,-2.96
2023-02-09T02:29:54.030Z,-2.96
2023-02-09T02:30:54.820Z,-2.94
2023-02-09T02:31:54.321Z,-2.94
2023-02-09T02:32:54.076Z,-3.05
2023-02-09T02:33:54.019Z,-2.96
2023-02-09T02:34:54.042Z,-2.99
2023-02-09T02:35:54.047Z,-2.99
2023-02-09T02:36:54.040Z,-3.14
2023-02-09T02:37:54.069Z,-3.09
2023-02-09T02:38:56.865Z,-3.01
2023-02-09T02:39:54.084Z,-3.01
2023-02-09T02:40:54.040Z,-3.07
2023-02-09T02:41:54.083Z,-3.14
2023-02-09T02:42:54.190Z,-3.26
2023-02-09T02:43:54.075Z,-3.26
2023-02-09T02:44:54.051Z,-3.17
2023-02-09T02:45:54.071Z,-3.26
2023-02-09T02:46:54.097Z,-3.08
2023-02-09T02:47:55.120Z,-3.2
2023-02-09T02:48:54.113Z,-3.25
2023-02-09T02:49:54.097Z,-3.23
2023-02-09T02:50:54.500Z,-3.15
2023-02-09T02:51:54.061Z,-3.3
2023-02-09T02:52:54.101Z,-3.4
2023-02-09T02:53:54.148Z,-3.37
2023-02-09T02:54:54.257Z,-3.53
2023-02-09T02:55:54.080Z,-3.59
2023-02-09T02:56:54.090Z,-3.61
2023-02-09T02:57:54.112Z,-3.56
2023-02-09T02:58:54.099Z,-3.51
2023-02-09T02:59:54.161Z,-3.41
2023-02-09T03:00:54.142Z,-3.37
2023-02-09T03:01:54.401Z,-3.3
2023-02-09T03:02:54.085Z,-3.37
2023-02-09T03:03:54.090Z,-3.3
2023-02-09T03:04:54.205Z,-3.29
2023-02-09T03:05:56.981Z,-3.36
2023-02-09T03:06:54.131Z,-3.33
2023-02-09T03:07:54.105Z,-3.37
2023-02-09T03:08:54.152Z,-3.37
2023-02-09T03:09:54.101Z,-3.37
2023-02-09T03:10:54.162Z,-3.2
2023-02-09T03:11:54.126Z,-3.26
2023-02-09T03:12:54.137Z,-3.26
2023-02-09T03:13:54.147Z,-3.25
2023-02-09T03:14:54.133Z,-3.17
2023-02-09T03:15:54.262Z,-3.22
2023-02-09T03:16:56.948Z,-3.22
2023-02-09T03:17:54.115Z,-3.22
2023-02-09T03:18:54.120Z,-3.15
2023-02-09T03:19:54.114Z,-3.22
2023-02-09T03:20:54.130Z,-3.36
2023-02-09T03:21:57.271Z,-3.53
2023-02-09T03:22:54.116Z,-3.58
2023-02-09T03:23:54.115Z,-3.55
2023-02-09T03:24:54.114Z,-3.64
2023-02-09T03:25:54.103Z,-3.58
2023-02-09T03:26:54.111Z,-3.51
2023-02-09T03:27:57.189Z,-3.51
2023-02-09T03:28:54.131Z,-3.46
2023-02-09T03:29:54.164Z,-3.48
2023-02-09T03:30:54.436Z,-3.53
2023-02-09T03:31:54.314Z,-3.55
2023-02-09T03:32:57.152Z,-3.61
2023-02-09T03:33:54.151Z,-3.81
2023-02-09T03:34:54.130Z,-3.68
2023-02-09T03:35:54.122Z,-3.78
2023-02-09T03:36:54.157Z,-3.81
2023-02-09T03:37:54.142Z,-3.77
2023-02-09T03:38:54.166Z,-3.74
2023-02-09T03:39:54.174Z,-3.71
2023-02-09T03:40:54.162Z,-3.69
2023-02-09T03:41:54.153Z,-3.69
2023-02-09T03:42:54.169Z,-3.62
2023-02-09T03:43:55.897Z,-3.65
2023-02-09T03:44:54.145Z,-3.77
2023-02-09T03:45:54.180Z,-3.74
2023-02-09T03:46:54.495Z,-3.85
2023-02-09T03:47:54.195Z,-3.77
2023-02-09T03:48:54.202Z,-3.83
2023-02-09T03:49:54.187Z,-3.78
2023-02-09T03:50:54.164Z,-3.91
2023-02-09T03:51:54.165Z,-3.84
2023-02-09T03:52:54.193Z,-3.8
2023-02-09T03:53:54.193Z,-3.84
2023-02-09T03:54:57.327Z,-3.81
2023-02-09T03:55:54.181Z,-3.84
2023-02-09T03:56:54.198Z,-3.99
2023-02-09T03:57:54.235Z,-3.81
2023-02-09T03:58:55.075Z,-3.96
2023-02-09T03:59:54.158Z,-3.91
2023-02-09T04:00:54.394Z,-3.91
2023-02-09T04:01:54.195Z,-3.85
2023-02-09T04:02:54.336Z,-3.96
2023-02-09T04:03:54.233Z,-3.95
2023-02-09T04:04:54.434Z,-3.91
2023-02-09T04:05:57.279Z,-3.88
2023-02-09T04:06:54.196Z,-3.85
2023-02-09T04:07:54.198Z,-3.84
2023-02-09T04:08:54.230Z,-3.9
2023-02-09T04:09:54.174Z,-3.81
2023-02-09T04:10:54.188Z,-3.9
2023-02-09T04:11:54.176Z,-4.05
2023-02-09T04:12:54.079Z,-3.99
2023-02-09T04:13:54.269Z,-4.04
2023-02-09T04:14:54.052Z,-4.06
2023-02-09T04:15:54.362Z,-4.17
2023-02-09T04:16:57.276Z,-3.98
2023-02-09T04:17:55.459Z,-4.06
2023-02-09T04:18:54.290Z,-4.04
2023-02-09T04:19:54.236Z,-3.95
2023-02-09T04:20:54.264Z,-3.94
2023-02-09T04:21:54.198Z,-4.05
2023-02-09T04:22:54.223Z,-3.99
2023-02-09T04:23:54.230Z,-3.96
2023-02-09T04:24:54.241Z,-3.94
2023-02-09T04:25:54.209Z,-3.95
2023-02-09T04:26:54.215Z,-3.96
2023-02-09T04:27:57.459Z,-3.98
2023-02-09T04:28:54.074Z,-3.96
2023-02-09T04:29:54.239Z,-3.9
2023-02-09T04:30:54.222Z,-3.96
2023-02-09T04:31:54.712Z,-3.98
2023-02-09T04:32:54.237Z,-3.9
2023-02-09T04:33:54.296Z,-4.01
2023-02-09T04:34:54.229Z,-4.02
2023-02-09T04:35:54.258Z,-3.98
2023-02-09T04:36:56.964Z,-4.08
2023-02-09T04:37:54.224Z,-4.19
2023-02-09T04:38:57.382Z,-4.12
2023-02-09T04:39:54.393Z,-4.09
2023-02-09T04:40:54.251Z,-4.08
2023-02-09T04:41:54.245Z,-4.24
2023-02-09T04:42:54.388Z,-4.19
2023-02-09T04:43:54.292Z,-4.12
2023-02-09T04:44:54.253Z,-4.08
2023-02-09T04:45:54.430Z,-4.08
2023-02-09T04:46:54.314Z,-4.09
2023-02-09T04:47:54.282Z,-4.14
2023-02-09T04:48:54.293Z,-4.09
2023-02-09T04:49:57.132Z,-4.09
2023-02-09T04:50:54.272Z,-4.02
2023-02-09T04:51:54.304Z,-4.09
2023-02-09T04:52:54.272Z,-4.02
2023-02-09T04:53:54.260Z,-4.14
2023-02-09T04:54:54.266Z,-4.17
2023-02-09T04:55:54.288Z,-4.13
2023-02-09T04:56:54.287Z,-4.2
2023-02-09T04:57:54.286Z,-4.27
2023-02-09T04:58:54.270Z,-4.31
2023-02-09T04:59:54.268Z,-4.3
2023-02-09T05:00:54.415Z,-4.22
2023-02-09T05:01:54.311Z,-4.42
2023-02-09T05:02:54.289Z,-4.4
2023-02-09T05:03:54.604Z,-4.41
2023-02-09T05:04:54.336Z,-4.44
2023-02-09T05:05:57.327Z,-4.4
2023-02-09T05:06:54.282Z,-4.52
2023-02-09T05:07:54.312Z,-4.4
2023-02-09T05:08:54.290Z,-4.41
2023-02-09T05:09:54.303Z,-4.34
2023-02-09T05:10:54.298Z,-4.4
2023-02-09T05:11:54.296Z,-4.35
2023-02-09T05:12:54.308Z,-4.27
2023-02-09T05:13:54.289Z,-4.3
2023-02-09T05:14:54.331Z,-4.2
2023-02-09T05:15:54.279Z,-4.3
2023-02-09T05:16:56.263Z,-4.13
2023-02-09T05:17:54.291Z,-4.22
2023-02-09T05:18:54.312Z,-4.24
2023-02-09T05:19:54.357Z,-4.24
2023-02-09T05:20:54.415Z,-4.24
2023-02-09T05:21:54.298Z,-4.13
2023-02-09T05:22:54.894Z,-4.19
2023-02-09T05:23:54.348Z,-4.09
2023-02-09T05:24:54.339Z,-4.2
2023-02-09T05:25:54.358Z,-4.19
2023-02-09T05:26:54.304Z,-4.22
2023-02-09T05:27:54.420Z,-4.16
2023-02-09T05:28:54.365Z,-4.26
2023-02-09T05:29:54.395Z,-4.22
2023-02-09T05:30:54.402Z,-4.33
2023-02-09T05:31:54.512Z,-4.22
2023-02-09T05:32:57.335Z,-4.3
2023-02-09T05:33:54.340Z,-4.27
2023-02-09T05:34:54.384Z,-4.3
2023-02-09T05:35:54.350Z,-4.24
2023-02-09T05:36:54.401Z,-4.2
2023-02-09T05:37:54.333Z,-4.44
2023-02-09T05:38:54.487Z,-4.49
2023-02-09T05:39:54.406Z,-4.37
2023-02-09T05:40:54.842Z,-4.41
2023-02-09T05:41:54.185Z,-4.35
2023-02-09T05:42:54.354Z,-4.44
2023-02-09T05:43:57.491Z,-4.4
2023-02-09T05:44:54.348Z,-4.33
2023-02-09T05:45:54.603Z,-4.24
2023-02-09T05:46:54.363Z,-4.35
2023-02-09T05:47:54.335Z,-4.33
2023-02-09T05:48:57.145Z,-4.2
2023-02-09T05:49:54.419Z,-4.22
2023-02-09T05:50:54.356Z,-4.22
2023-02-09T05:51:57.334Z,-4.13
2023-02-09T05:52:54.383Z,-4.2
2023-02-09T05:53:54.412Z,-4.24
2023-02-09T05:54:57.291Z,-4.2
2023-02-09T05:55:54.375Z,-4.26
2023-02-09T05:56:54.373Z,-4.3
2023-02-09T05:57:54.370Z,-4.31
2023-02-09T05:58:54.413Z,-4.35
2023-02-09T05:59:55.964Z,-4.37
2023-02-09T06:00:54.378Z,-4.38
2023-02-09T06:01:54.396Z,-4.4
2023-02-09T06:02:54.460Z,-4.41
2023-02-09T06:03:54.629Z,-4.42
2023-02-09T06:04:54.426Z,-4.35
2023-02-09T06:05:57.450Z,-4.53
2023-02-09T06:06:54.406Z,-4.53
2023-02-09T06:07:54.448Z,-4.55
2023-02-09T06:08:54.463Z,-4.44
2023-02-09T06:09:54.260Z,-4.44
2023-02-09T06:10:57.221Z,-4.45
2023-02-09T06:11:54.401Z,-4.31
2023-02-09T06:12:54.391Z,-4.35
2023-02-09T06:13:54.382Z,-4.31
2023-02-09T06:14:54.399Z,-4.27
2023-02-09T06:15:54.569Z,-4.2
2023-02-09T06:16:54.366Z,-4.24
2023-02-09T06:17:54.407Z,-4.2
2023-02-09T06:18:54.396Z,-4.09
2023-02-09T06:19:54.443Z,-4.22
2023-02-09T06:20:54.445Z,-4.16
2023-02-09T06:21:57.443Z,-4.2
2023-02-09T06:22:54.417Z,-4.09
2023-02-09T06:23:54.382Z,-4.27
2023-02-09T06:24:54.433Z,-4.23
2023-02-09T06:25:54.399Z,-4.12
2023-02-09T06:26:54.415Z,-4.16
2023-02-09T06:27:54.625Z,-4.17
2023-02-09T06:28:54.410Z,-4.12
2023-02-09T06:29:54.414Z,-4.13
2023-02-09T06:30:55.454Z,-4.09
2023-02-09T06:31:55.012Z,-4.22
2023-02-09T06:32:57.442Z,-4.26
2023-02-09T06:33:54.401Z,-4.2
2023-02-09T06:34:54.448Z,-4.09
2023-02-09T06:35:56.845Z,-4.19
2023-02-09T06:36:54.506Z,-4.26
2023-02-09T06:37:54.416Z,-4.3
2023-02-09T06:38:54.418Z,-4.24
2023-02-09T06:39:54.438Z,-4.17
2023-02-09T06:40:54.468Z,-4.22
2023-02-09T06:41:54.420Z,-4.14
2023-02-09T06:42:54.629Z,-4.09
2023-02-09T06:43:57.408Z,-3.98
2023-02-09T06:44:54.447Z,-4.05
2023-02-09T06:45:54.602Z,-3.98
2023-02-09T06:46:54.421Z,-4.01
2023-02-09T06:47:54.601Z,-4.08
2023-02-09T06:48:54.596Z,-4.04
2023-02-09T06:49:54.918Z,-4.14
2023-02-09T06:50:54.741Z,-4.14
2023-02-09T06:51:54.882Z,-4.14
2023-02-09T06:52:54.432Z,-4.09
2023-02-09T06:53:54.447Z,-4.14
2023-02-09T06:54:57.410Z,-4.09
2023-02-09T06:55:54.435Z,-4.16
2023-02-09T06:56:54.480Z,-4.14
2023-02-09T06:57:54.437Z,-4.13
2023-02-09T06:58:54.466Z,-4.05
2023-02-09T06:59:54.471Z,-4.06
2023-02-09T07:00:54.449Z,-4.02
2023-02-09T07:01:57.321Z,-4.02
2023-02-09T07:02:54.606Z,-3.98
2023-02-09T07:03:54.460Z,-3.98
2023-02-09T07:04:54.444Z,-3.96
2023-02-09T07:05:57.491Z,-3.98
2023-02-09T07:06:54.451Z,-3.9
2023-02-09T07:07:54.451Z,-3.88
2023-02-09T07:08:54.456Z,-3.77
2023-02-09T07:09:54.463Z,-3.62
2023-02-09T07:10:54.454Z,-3.41
2023-02-09T07:11:54.439Z,-3.32
2023-02-09T07:12:54.479Z,-3.15
2023-02-09T07:13:54.473Z,-3.01
2023-02-09T07:14:54.468Z,-2.9
2023-02-09T07:15:54.536Z,-2.72
2023-02-09T07:16:57.364Z,-2.66
2023-02-09T07:17:54.451Z,-2.44
2023-02-09T07:18:54.510Z,-2.2
2023-02-09T07:19:54.487Z,-2.14
2023-02-09T07:20:54.471Z,-1.93
2023-02-09T07:21:54.476Z,-1.79
2023-02-09T07:22:54.494Z,-1.66
2023-02-09T07:23:54.488Z,-1.56
2023-02-09T07:24:54.494Z,-1.33
2023-02-09T07:25:54.482Z,-1.27
2023-02-09T07:26:54.521Z,-1.06
2023-02-09T07:27:54.655Z,-0.93
2023-02-09T07:28:54.606Z,-0.66
2023-02-09T07:29:54.539Z,-0.53
2023-02-09T07:30:55.083Z,-0.35
2023-02-09T07:31:54.741Z,-0.24
2023-02-09T07:32:54.479Z,-0.13
2023-02-09T07:33:54.514Z,0.11
2023-02-09T07:34:54.477Z,0.31
2023-02-09T07:35:54.984Z,0.47
2023-02-09T07:36:54.736Z,0.49
2023-02-09T07:37:54.746Z,0.71
2023-02-09T07:38:55.115Z,0.74
2023-02-09T07:39:55.676Z,0.74
2023-02-09T07:40:54.497Z,0.82
2023-02-09T07:41:54.526Z,1.06
2023-02-09T07:42:54.501Z,1.13
2023-02-09T07:43:54.527Z,1.14
2023-02-09T07:44:54.539Z,1.36
2023-02-09T07:45:54.529Z,1.45
2023-02-09T07:46:54.766Z,1.5
2023-02-09T07:47:54.605Z,1.49
2023-02-09T07:48:54.524Z,1.75
2023-02-09T07:49:54.516Z,1.88
2023-02-09T07:50:54.555Z,2.03
2023-02-09T07:51:54.546Z,2.07
2023-02-09T07:52:54.529Z,2.22
2023-02-09T07:53:54.543Z,2.39
2023-02-09T07:54:54.986Z,2.41
2023-02-09T07:55:54.545Z,2.44
2023-02-09T07:56:54.528Z,2.57
2023-02-09T07:57:54.582Z,2.52
2023-02-09T07:58:54.538Z,2.64
2023-02-09T07:59:57.545Z,2.7
2023-02-09T08:00:54.639Z,2.85
2023-02-09T08:01:54.854Z,2.95
2023-02-09T08:02:54.571Z,3.05
2023-02-09T08:03:54.572Z,2.93
2023-02-09T08:04:54.625Z,3.06
2023-02-09T08:05:54.694Z,3.27
2023-02-09T08:06:54.529Z,3.29
2023-02-09T08:07:54.611Z,3.16
2023-02-09T08:08:54.558Z,3.4
2023-02-09T08:09:54.529Z,3.26
2023-02-09T08:10:57.629Z,3.43
2023-02-09T08:11:54.722Z,3.49
2023-02-09T08:12:54.548Z,3.48
2023-02-09T08:13:54.567Z,3.61
2023-02-09T08:14:54.553Z,3.63
2023-02-09T08:15:55.513Z,3.76
2023-02-09T08:16:54.624Z,3.82
2023-02-09T08:17:54.549Z,3.71
2023-02-09T08:18:54.564Z,3.67
2023-02-09T08:19:54.585Z,3.82
2023-02-09T08:20:54.573Z,3.71
2023-02-09T08:21:57.349Z,3.85
2023-02-09T08:22:54.581Z,3.86
2023-02-09T08:23:54.744Z,3.77
2023-02-09T08:24:54.615Z,3.92
2023-02-09T08:25:54.604Z,3.84
2023-02-09T08:26:57.499Z,3.82
2023-02-09T08:27:54.828Z,4
2023-02-09T08:28:54.865Z,4.24
2023-02-09T08:29:54.601Z,4.27
2023-02-09T08:30:54.789Z,4.18
2023-02-09T08:31:54.843Z,4.22
2023-02-09T08:32:57.693Z,4.27
2023-02-09T08:33:54.623Z,4.22
2023-02-09T08:34:54.608Z,4.25
2023-02-09T08:35:54.668Z,4.39
2023-02-09T08:36:54.611Z,4.2
2023-02-09T08:37:57.390Z,4.38
2023-02-09T08:38:54.611Z,4.46
2023-02-09T08:39:54.632Z,4.38
2023-02-09T08:40:54.650Z,4.27
2023-02-09T08:41:54.632Z,4.34
2023-02-09T08:42:54.654Z,4.48
2023-02-09T08:43:57.757Z,4.27
2023-02-09T08:44:54.645Z,4.25
2023-02-09T08:45:55.774Z,4.32
2023-02-09T08:46:55.192Z,4.32
2023-02-09T08:47:54.599Z,4.4
2023-02-09T08:48:57.750Z,4.25
2023-02-09T08:49:54.624Z,4.28
2023-02-09T08:50:54.650Z,4.45
2023-02-09T08:51:54.664Z,4.46
2023-02-09T08:52:54.612Z,4.53
2023-02-09T08:53:56.436Z,4.5
2023-02-09T08:54:54.706Z,4.43
2023-02-09T08:55:54.694Z,4.58
2023-02-09T08:56:54.632Z,4.78
2023-02-09T08:57:54.612Z,4.61
2023-02-09T08:58:54.825Z,4.42
2023-02-09T08:59:57.413Z,4.39
2023-02-09T09:00:54.844Z,4.61
2023-02-09T09:01:54.644Z,4.42
2023-02-09T09:02:54.667Z,4.42
2023-02-09T09:03:54.840Z,4.36
2023-02-09T09:04:54.681Z,4.27
2023-02-09T09:05:54.791Z,3.84
2023-02-09T09:06:54.659Z,3.58
2023-02-09T09:07:54.678Z,3.77
2023-02-09T09:08:54.638Z,3.89
2023-02-09T09:09:54.714Z,3.7
2023-02-09T09:10:57.898Z,3.31
2023-02-09T09:11:54.676Z,3.36
2023-02-09T09:12:54.633Z,3.36
2023-02-09T09:13:54.683Z,3.49
2023-02-09T09:14:54.670Z,3.36
2023-02-09T09:15:54.658Z,3.26
2023-02-09T09:16:54.896Z,3.21
2023-02-09T09:17:54.644Z,3.21
2023-02-09T09:18:54.672Z,3.21
2023-02-09T09:19:54.678Z,3.06
2023-02-09T09:20:54.737Z,3.18
2023-02-09T09:21:57.583Z,3.03
2023-02-09T09:22:54.670Z,3.22
2023-02-09T09:23:54.712Z,3.29
2023-02-09T09:24:54.700Z,3.21
2023-02-09T09:25:54.677Z,3.19
2023-02-09T09:26:54.739Z,3.22
2023-02-09T09:27:54.891Z,3.21
2023-02-09T09:28:54.753Z,3.26
2023-02-09T09:29:54.668Z,3.31
2023-02-09T09:30:54.882Z,3.29
2023-02-09T09:31:55.005Z,3.3
2023-02-09T09:32:59.228Z,3.16
2023-02-09T09:33:54.729Z,3.3
2023-02-09T09:34:54.691Z,3.09
2023-02-09T09:35:54.722Z,3.22
2023-02-09T09:36:54.783Z,3.45
2023-02-09T09:37:54.763Z,3.43
2023-02-09T09:38:56.473Z,3.53
2023-02-09T09:39:54.825Z,3.7
2023-02-09T09:40:54.705Z,3.74
2023-02-09T09:41:54.714Z,3.74
2023-02-09T09:42:54.717Z,3.82
2023-02-09T09:43:57.550Z,3.92
2023-02-09T09:44:54.701Z,3.77
2023-02-09T09:45:54.994Z,4.18
2023-02-09T09:46:54.717Z,4
2023-02-09T09:47:54.726Z,4.13
2023-02-09T09:48:54.733Z,4.24
2023-02-09T09:49:54.723Z,4.14
2023-02-09T09:50:54.718Z,4.18
2023-02-09T09:51:54.870Z,4.12
2023-02-09T09:52:54.749Z,4.22
2023-02-09T09:53:54.723Z,4.07
2023-02-09T09:54:54.729Z,4.02
2023-02-09T09:55:55.237Z,3.88
2023-02-09T09:56:54.758Z,3.85
2023-02-09T09:57:54.720Z,3.81
2023-02-09T09:58:54.750Z,3.67
2023-02-09T09:59:54.756Z,3.61
2023-02-09T10:00:54.944Z,3.73
2023-02-09T10:01:54.795Z,3.71
2023-02-09T10:02:54.741Z,3.82
2023-02-09T10:03:55.784Z,3.61
2023-02-09T10:04:54.991Z,3.68
2023-02-09T10:05:54.726Z,3.59
2023-02-09T10:06:54.763Z,3.73
2023-02-09T10:07:54.770Z,3.82
2023-02-09T10:08:54.804Z,3.77
2023-02-09T10:09:54.762Z,3.77
2023-02-09T10:10:54.744Z,3.88
2023-02-09T10:11:54.804Z,3.86
2023-02-09T10:12:54.751Z,3.96
2023-02-09T10:13:54.798Z,4
2023-02-09T10:14:54.793Z,4.18
2023-02-09T10:15:54.757Z,4.22
2023-02-09T10:16:55.061Z,4.34
2023-02-09T10:17:54.806Z,4.46
2023-02-09T10:18:54.800Z,4.43
2023-02-09T10:19:56.615Z,4.48
2023-02-09T10:20:54.796Z,4.52
2023-02-09T10:21:54.820Z,4.66
2023-02-09T10:22:54.776Z,4.71
2023-02-09T10:23:54.766Z,4.7
2023-02-09T10:24:54.792Z,4.7
2023-02-09T10:25:54.779Z,4.95
2023-02-09T10:26:57.813Z,5.05
2023-02-09T10:27:54.897Z,4.82
2023-02-09T10:28:54.774Z,4.86
2023-02-09T10:29:54.799Z,4.94
2023-02-09T10:30:55.255Z,5.07
2023-02-09T10:31:55.354Z,5.23
2023-02-09T10:32:54.784Z,5.23
2023-02-09T10:33:54.757Z,5.38
2023-02-09T10:34:54.997Z,5.51
2023-02-09T10:35:54.798Z,5.31
2023-02-09T10:36:54.853Z,5.16
2023-02-09T10:37:57.626Z,5.43
2023-02-09T10:38:54.832Z,5.33
2023-02-09T10:39:54.801Z,5.36
2023-02-09T10:40:54.947Z,5.49
2023-02-09T10:41:54.813Z,5.41
2023-02-09T10:42:57.943Z,5.47
2023-02-09T10:43:54.796Z,5.7
2023-02-09T10:44:54.808Z,5.77
2023-02-09T10:45:54.891Z,5.83
2023-02-09T10:46:54.862Z,5.95
2023-02-09T10:47:54.822Z,5.91
2023-02-09T10:48:57.944Z,5.9
2023-02-09T10:49:57.024Z,5.88
2023-02-09T10:50:54.837Z,5.91
2023-02-09T10:51:55.697Z,5.83
2023-02-09T10:52:54.937Z,5.81
2023-02-09T10:53:57.666Z,6.07
2023-02-09T10:54:54.854Z,6.13
2023-02-09T10:55:54.872Z,5.97
2023-02-09T10:56:54.865Z,5.9
2023-02-09T10:57:54.814Z,5.88
2023-02-09T10:58:54.849Z,5.81
2023-02-09T10:59:57.634Z,5.77
2023-02-09T11:00:54.831Z,5.97
2023-02-09T11:01:55.063Z,5.92
2023-02-09T11:02:54.856Z,6.02
2023-02-09T11:03:54.915Z,6.1
2023-02-09T11:04:57.616Z,6.12
2023-02-09T11:05:54.851Z,6.25
2023-02-09T11:06:54.855Z,6.19
2023-02-09T11:07:54.831Z,5.97
2023-02-09T11:08:54.854Z,6.15
2023-02-09T11:09:54.928Z,6.22
2023-02-09T11:10:57.844Z,6.36
2023-02-09T11:11:54.850Z,6.34
2023-02-09T11:12:54.885Z,6.2
2023-02-09T11:13:54.845Z,6.38
2023-02-09T11:14:54.864Z,6.07
2023-02-09T11:15:57.701Z,6.15
2023-02-09T11:16:54.986Z,6.17
2023-02-09T11:17:54.854Z,6.29
2023-02-09T11:18:54.863Z,6.32
2023-02-09T11:19:54.856Z,6.36
2023-02-09T11:20:54.849Z,6.17
2023-02-09T11:21:54.890Z,6.2
2023-02-09T11:22:54.838Z,6.09
2023-02-09T11:23:54.853Z,6.15
2023-02-09T11:24:54.865Z,6.19
2023-02-09T11:25:54.890Z,6.49
2023-02-09T11:26:58.158Z,6.59
2023-02-09T11:27:54.991Z,6.31
2023-02-09T11:28:54.887Z,6.26
2023-02-09T11:29:54.837Z,6.19
2023-02-09T11:30:55.584Z,6.05
2023-02-09T11:31:55.262Z,6.05
2023-02-09T11:32:54.857Z,5.98
2023-02-09T11:33:54.860Z,6.05
2023-02-09T11:34:54.935Z,5.99
2023-02-09T11:35:54.875Z,5.81
2023-02-09T11:36:54.879Z,5.67
2023-02-09T11:37:57.918Z,5.62
2023-02-09T11:38:54.905Z,5.73
2023-02-09T11:39:54.862Z,5.59
2023-02-09T11:40:54.883Z,5.49
2023-02-09T11:41:54.915Z,5.46
2023-02-09T11:42:54.870Z,5.59
2023-02-09T11:43:54.861Z,5.59
2023-02-09T11:44:54.903Z,5.56
2023-02-09T11:45:54.887Z,5.55
2023-02-09T11:46:54.966Z,5.62
2023-02-09T11:47:54.950Z,5.33
2023-02-09T11:48:57.663Z,5.41
2023-02-09T11:49:54.901Z,5.41
2023-02-09T11:50:54.923Z,5.56
2023-02-09T11:51:54.928Z,5.59
2023-02-09T11:52:54.904Z,5.29
2023-02-09T11:53:54.887Z,5.44
2023-02-09T11:54:54.901Z,5.64
2023-02-09T11:55:54.938Z,5.72
2023-02-09T11:56:54.942Z,5.69
2023-02-09T11:57:54.882Z,5.8
2023-02-09T11:58:54.894Z,5.84
2023-02-09T11:59:57.795Z,5.94
2023-02-09T12:01:17.864Z,5.69
2023-02-09T12:01:54.944Z,5.7
2023-02-09T12:02:55.216Z,5.52
2023-02-09T12:03:54.913Z,5.38
2023-02-09T12:04:54.910Z,5.51
2023-02-09T12:05:54.919Z,5.55
2023-02-09T12:06:55.248Z,5.28
2023-02-09T12:07:54.888Z,5.1
2023-02-09T12:08:54.927Z,5.23
2023-02-09T12:09:54.918Z,5.23
2023-02-09T12:10:57.770Z,5.2
2023-02-09T12:11:54.937Z,5.08
2023-02-09T12:12:54.913Z,5.23
2023-02-09T12:13:55.128Z,5.25
2023-02-09T12:14:54.937Z,5.1
2023-02-09T12:15:55.106Z,5.13
2023-02-09T12:16:54.976Z,5.23
2023-02-09T12:17:54.925Z,5.12
2023-02-09T12:18:54.934Z,5.08
2023-02-09T12:19:55.176Z,5.1
2023-02-09T12:20:54.919Z,5.18
2023-02-09T12:21:54.940Z,5.04
2023-02-09T12:22:54.958Z,5.04
2023-02-09T12:23:54.943Z,5.15
2023-02-09T12:24:54.925Z,5.13
2023-02-09T12:25:56.205Z,5.16
2023-02-09T12:26:54.986Z,5.16
2023-02-09T12:27:55.147Z,5.04
2023-02-09T12:28:54.953Z,5.07
2023-02-09T12:29:54.957Z,5.02
2023-02-09T12:30:55.150Z,4.94
2023-02-09T12:31:55.214Z,5.08
2023-02-09T12:32:54.948Z,5
2023-02-09T12:33:54.949Z,5.01
2023-02-09T12:34:54.961Z,4.98
2023-02-09T12:35:54.941Z,5.02
2023-02-09T12:36:54.969Z,4.83
2023-02-09T12:37:54.955Z,4.92
2023-02-09T12:39:07.214Z,4.94
2023-02-09T12:39:59.855Z,4.98
2023-02-09T12:40:54.958Z,4.94
2023-02-09T12:41:54.982Z,4.98
2023-02-09T12:42:54.996Z,5.05
2023-02-09T12:43:55.007Z,5
2023-02-09T12:44:54.942Z,4.97
2023-02-09T12:45:55.262Z,4.94
2023-02-09T12:46:55.006Z,4.92
2023-02-09T12:47:54.989Z,5
2023-02-09T12:48:55.010Z,4.97
2023-02-09T12:49:54.970Z,4.97
2023-02-09T12:50:55.006Z,4.89
2023-02-09T12:51:55.026Z,4.76
2023-02-09T12:52:54.965Z,4.86
2023-02-09T12:53:58.192Z,4.86
2023-02-09T12:54:55.018Z,4.98
2023-02-09T12:55:54.959Z,5.1
2023-02-09T12:56:55.012Z,5.02
2023-02-09T12:57:55.013Z,5.04
2023-02-09T12:58:55.024Z,5.04
2023-02-09T12:59:55.489Z,5.01
2023-02-09T13:00:55.187Z,5.04
2023-02-09T13:01:55.108Z,5.12
2023-02-09T13:02:55.046Z,5.07
2023-02-09T13:03:55.214Z,5.02
2023-02-09T13:04:57.753Z,5.08
2023-02-09T13:05:54.983Z,5.07
2023-02-09T13:06:55.063Z,5.1